createdAt,value
2022-08-09T00:02:34.438Z,87.40
2022-08-09T00:07:44.830Z,86.30
2022-08-09T00:12:51.542Z,85.88
2022-08-09T00:18:10.841Z,84.90
2022-08-09T00:23:55.927Z,83.19
2022-08-09T00:28:38.104Z,82.56
2022-08-09T00:33:51.178Z,81.68
2022-08-09T00:38:55.810Z,81.19
2022-08-09T00:44:16.957Z,81.06
2022-08-09T00:49:22.294Z,80.63
2022-08-09T00:54:35.345Z,80.63
2022-08-09T00:59:47.080Z,80.27
2022-08-09T01:05:13.706Z,79.95
2022-08-09T01:10:36.466Z,79.53
2022-08-09T01:15:52.469Z,79.09
2022-08-09T01:21:14.254Z,78.70
2022-08-09T01:26:36.618Z,78.51
2022-08-09T01:32:31.153Z,78.05
2022-08-09T01:37:05.339Z,76.67
2022-08-09T01:42:11.129Z,75.09
2022-08-09T01:47:14.606Z,72.52
2022-08-09T01:52:21.283Z,72.33
2022-08-09T01:57:39.893Z,71.67
2022-08-09T02:02:54.206Z,70.59
2022-08-09T02:08:39.947Z,69.93
2022-08-09T02:13:37.490Z,69.81
2022-08-09T02:18:48.396Z,69.44
2022-08-09T02:23:55.234Z,68.53
2022-08-09T02:29:09.094Z,67.84
2022-08-09T02:34:40.259Z,67.65
2022-08-09T02:39:42.658Z,67.33
2022-08-09T02:44:54.346Z,66.91
2022-08-09T02:50:07.310Z,66.20
2022-08-09T02:55:20.307Z,65.95
2022-08-09T03:00:26.798Z,65.58
2022-08-09T03:05:34.929Z,65.47
2022-08-09T03:10:38.115Z,64.79
2022-08-09T03:16:05.770Z,63.92
2022-08-09T03:21:06.505Z,63.36
2022-08-09T03:26:09.711Z,63.38
2022-08-09T03:31:21.358Z,63.35
2022-08-09T03:36:31.349Z,62.30
2022-08-09T03:41:45.824Z,62.00
2022-08-09T03:46:51.576Z,61.71
2022-08-09T03:52:00.453Z,61.40
2022-08-09T03:57:18.583Z,61.05
2022-08-09T04:02:26.437Z,60.96
2022-08-09T04:07:33.875Z,60.62
2022-08-09T04:12:54.413Z,60.29
2022-08-09T04:17:57.779Z,60.04
2022-08-09T04:23:00.724Z,59.44
2022-08-09T04:28:12.499Z,59.22
2022-08-09T04:33:18.322Z,59.03
2022-08-09T04:38:21.262Z,58.21
2022-08-09T04:43:25.192Z,58.29
2022-08-09T04:48:33.103Z,56.85
2022-08-09T04:53:36.440Z,57.00
2022-08-09T04:58:40.208Z,56.68
2022-08-09T05:03:43.923Z,56.25
2022-08-09T05:08:47.835Z,55.47
2022-08-09T05:13:50.938Z,55.23
2022-08-09T05:18:59.944Z,54.36
2022-08-09T05:24:05.223Z,54.04
2022-08-09T05:29:17.368Z,53.87
2022-08-09T05:34:23.520Z,53.15
2022-08-09T05:39:36.265Z,52.76
2022-08-09T05:44:47.730Z,52.61
2022-08-09T05:50:24.324Z,52.77
2022-08-09T05:55:21.834Z,52.71
2022-08-09T06:00:58.723Z,51.47
2022-08-09T06:06:06.192Z,51.67
2022-08-09T06:11:16.686Z,51.23
2022-08-09T06:16:20.623Z,51.07
2022-08-09T06:21:23.404Z,50.57
2022-08-09T06:26:28.652Z,49.80
2022-08-09T06:31:39.173Z,48.97
2022-08-09T06:36:44.021Z,48.67
2022-08-09T06:42:11.372Z,47.64
2022-08-09T06:53:33.410Z,46.85
2022-08-09T07:00:52.321Z,47.11
2022-08-09T07:04:20.230Z,46.18
2022-08-09T07:09:53.602Z,46.62
2022-08-09T07:14:50.910Z,47.06
2022-08-09T07:20:04.215Z,47.02
2022-08-09T07:25:09.781Z,47.63
2022-08-09T07:30:14.333Z,47.45
2022-08-09T07:35:17.305Z,46.82
2022-08-09T07:40:25.204Z,45.57
2022-08-09T07:45:37.383Z,46.58
2022-08-09T07:50:43.615Z,46.50
2022-08-09T07:56:05.438Z,45.45
2022-08-09T08:01:11.209Z,44.35
2022-08-09T08:06:14.470Z,44.66
2022-08-09T08:12:11.503Z,44.66
2022-08-09T08:17:00.438Z,44.82
2022-08-09T08:22:06.819Z,45.63
2022-08-09T08:27:17.041Z,45.73
2022-08-09T08:32:29.051Z,44.95
2022-08-09T08:37:40.857Z,44.22
2022-08-09T08:42:47.004Z,44.66
2022-08-09T08:47:50.586Z,43.78
2022-08-09T08:53:05.124Z,43.16
2022-08-09T08:58:08.500Z,42.88
2022-08-09T09:03:16.445Z,42.82
2022-08-09T09:08:29.779Z,42.67
2022-08-09T09:13:57.557Z,42.70
2022-08-09T09:24:29.422Z,42.43
2022-08-09T09:29:45.990Z,41.49
2022-08-09T09:35:09.396Z,42.69
2022-08-09T09:40:13.181Z,43.09
2022-08-09T09:45:26.910Z,42.95
2022-08-09T09:50:51.374Z,43.00
2022-08-09T09:56:04.157Z,43.09
2022-08-09T10:01:36.935Z,43.16
2022-08-09T10:06:51.914Z,42.68
2022-08-09T10:12:12.334Z,43.94
2022-08-09T10:17:50.568Z,42.96
2022-08-09T10:23:00.569Z,41.95
2022-08-09T10:28:03.906Z,42.15
2022-08-09T10:34:07.683Z,42.39
2022-08-09T10:38:56.158Z,42.75
2022-08-09T10:44:02.166Z,42.52
2022-08-09T10:49:20.529Z,42.94
2022-08-09T10:54:24.743Z,43.23
2022-08-09T10:59:31.815Z,43.51
2022-08-09T11:05:24.848Z,44.14
2022-08-09T11:10:47.198Z,43.26
2022-08-09T11:16:35.066Z,43.00
2022-08-09T11:21:57.006Z,42.98
2022-08-09T11:28:04.835Z,43.33
2022-08-09T11:33:06.294Z,43.17
2022-08-09T11:38:19.437Z,44.18
2022-08-09T11:43:32.041Z,43.96
2022-08-09T11:48:49.620Z,44.64
2022-08-09T11:54:29.032Z,44.41
2022-08-09T11:59:37.820Z,44.21
2022-08-09T12:04:41.088Z,44.07
2022-08-09T12:09:50.993Z,44.36
2022-08-09T12:15:07.484Z,44.87
2022-08-09T12:20:22.571Z,45.18
2022-08-09T12:25:36.795Z,45.74
2022-08-09T12:30:42.426Z,45.84
2022-08-09T12:35:45.761Z,45.84
2022-08-09T12:40:52.406Z,45.50
2022-08-09T12:45:59.728Z,44.94
2022-08-09T12:51:04.878Z,43.55
2022-08-09T12:56:43.292Z,44.44
2022-08-09T13:01:42.641Z,45.91
2022-08-09T13:06:49.941Z,46.77
2022-08-09T13:12:02.043Z,47.53
2022-08-09T13:17:08.457Z,47.15
2022-08-09T13:23:00.419Z,44.33
2022-08-09T13:27:48.748Z,42.89
2022-08-09T13:32:59.053Z,43.16
2022-08-09T13:38:02.670Z,43.60
2022-08-09T13:43:09.767Z,46.41
2022-08-09T13:48:14.636Z,48.32
2022-08-09T13:53:18.580Z,49.84
2022-08-09T13:58:21.331Z,50.88
2022-08-09T14:04:03.576Z,51.80
2022-08-09T14:08:57.894Z,52.90
2022-08-09T14:14:24.317Z,53.63
2022-08-09T14:19:26.955Z,54.29
2022-08-09T14:24:36.236Z,55.13
2022-08-09T14:30:35.286Z,55.50
2022-08-09T14:35:15.172Z,55.93
2022-08-09T14:40:28.211Z,56.60
2022-08-09T14:46:58.475Z,56.93
2022-08-09T14:51:10.641Z,57.12
2022-08-09T14:56:13.518Z,57.41
2022-08-09T15:01:16.343Z,57.75
2022-08-09T15:06:22.871Z,57.99
2022-08-09T15:11:28.372Z,57.95
2022-08-09T15:16:32.696Z,58.15
2022-08-09T15:21:55.401Z,58.40
2022-08-09T15:27:01.349Z,58.52
2022-08-09T15:32:05.039Z,58.92
2022-08-09T15:37:37.102Z,59.23
2022-08-09T15:42:43.137Z,59.84
2022-08-09T15:48:02.552Z,60.09
2022-08-09T15:54:02.168Z,60.30
2022-08-09T15:58:32.916Z,60.77
2022-08-09T16:03:38.736Z,61.10
2022-08-09T16:08:48.936Z,61.71
2022-08-09T16:14:05.384Z,61.88
2022-08-09T16:19:11.032Z,62.50
2022-08-09T16:24:30.336Z,62.66
2022-08-09T16:29:37.499Z,62.77
2022-08-09T16:34:55.063Z,63.07
2022-08-09T16:40:05.336Z,63.48
2022-08-09T16:45:09.641Z,63.77
2022-08-09T16:50:29.271Z,64.33
2022-08-09T16:56:00.171Z,64.64
2022-08-09T17:01:00.817Z,64.78
2022-08-09T17:06:28.140Z,65.16
2022-08-09T17:11:39.986Z,65.29
2022-08-09T17:16:44.191Z,65.83
2022-08-09T17:21:47.438Z,66.26
2022-08-09T17:26:53.457Z,66.81
2022-08-09T17:31:58.541Z,67.28
2022-08-09T17:37:02.441Z,67.55
2022-08-09T17:42:05.897Z,67.94
2022-08-09T17:47:10.483Z,67.87
2022-08-09T17:52:22.061Z,68.03
2022-08-09T17:58:03.730Z,68.68
2022-08-09T18:02:50.382Z,68.84
2022-08-09T18:08:01.473Z,68.94
2022-08-09T18:13:54.512Z,69.24
2022-08-09T18:18:32.533Z,69.34
2022-08-09T18:24:11.115Z,69.66
2022-08-09T18:30:38.840Z,69.90
2022-08-09T18:34:21.409Z,69.93
2022-08-09T18:39:32.844Z,70.59
2022-08-09T18:44:35.743Z,70.85
2022-08-09T18:49:41.563Z,71.02
2022-08-09T18:54:52.199Z,71.49
2022-08-09T19:00:03.006Z,71.76
2022-08-09T19:05:19.681Z,72.06
2022-08-09T19:10:37.103Z,71.73
2022-08-09T19:15:44.433Z,71.74
2022-08-09T19:20:52.250Z,72.01
2022-08-09T19:26:05.305Z,72.48
2022-08-09T19:31:08.429Z,73.24
2022-08-09T19:36:11.868Z,74.19
2022-08-09T19:41:33.521Z,75.04
2022-08-09T19:46:50.036Z,76.05
2022-08-09T19:51:55.172Z,76.69
2022-08-09T19:56:59.492Z,77.16
2022-08-09T20:02:17.237Z,78.14
2022-08-09T20:07:33.892Z,78.84
2022-08-09T20:12:49.821Z,79.32
2022-08-09T20:17:55.027Z,79.19
2022-08-09T20:22:58.473Z,79.61
2022-08-09T20:28:02.611Z,80.00
2022-08-09T20:33:06.570Z,80.51
2022-08-09T20:38:23.715Z,81.65
2022-08-09T20:43:32.186Z,81.88
2022-08-09T20:48:37.401Z,82.18
2022-08-09T20:53:40.499Z,82.63
2022-08-09T20:58:43.506Z,81.91
2022-08-09T21:04:08.332Z,82.61
2022-08-09T21:09:14.256Z,83.05
2022-08-09T21:14:19.445Z,83.45
2022-08-09T21:20:18.831Z,83.12
2022-08-09T21:25:03.577Z,83.35
2022-08-09T21:30:08.657Z,83.23
2022-08-09T21:35:13.547Z,83.56
2022-08-09T21:40:22.147Z,84.52
2022-08-09T21:45:38.808Z,85.44
2022-08-09T21:50:49.804Z,85.15
2022-08-09T21:55:54.273Z,85.22
2022-08-09T22:00:57.062Z,85.27
2022-08-09T22:06:00.321Z,84.76
2022-08-09T22:12:05.833Z,84.67
2022-08-09T22:16:26.026Z,84.90
2022-08-09T22:21:50.464Z,84.75
2022-08-09T22:26:52.768Z,85.09
2022-08-09T22:31:56.874Z,84.63
2022-08-09T22:37:00.662Z,84.64
2022-08-09T22:42:04.080Z,85.35
2022-08-09T22:48:11.604Z,85.55
2022-08-09T22:52:42.088Z,85.13
2022-08-09T22:57:59.912Z,84.98
2022-08-09T23:03:03.288Z,84.49
2022-08-09T23:08:34.318Z,84.51
2022-08-09T23:13:37.770Z,84.35
2022-08-09T23:18:41.670Z,84.85
2022-08-09T23:24:05.585Z,85.52
2022-08-09T23:29:10.293Z,86.19
2022-08-09T23:34:13.269Z,86.54
2022-08-09T23:39:17.476Z,86.42
2022-08-09T23:44:20.371Z,87.12
2022-08-09T23:49:24.364Z,87.53
2022-08-09T23:54:27.838Z,88.55
2022-08-09T23:59:51.398Z,88.86
